Time;durP1;ratioP1;P1;durP2;ratioP2;P2;SDS_P1;SDS_P2;PMS_P1;PMS_P2;Temp;Humidity;BMP_temperature;BMP_pressure;BME280_temperature;BME280_humidity;BME280_pressure;Samples;Min_cycle;Max_cycle;Signal;HPM_P1;HPM_P2
2022/01/17 21:10:12;;;;;;;12.55;3.50;;;;;;;;;;5087691;28;20476;-40
2022/01/17 21:12:45;;;;;;;8.73;3.38;;;;;;;;;;5058667;27;78131;-37
2022/01/17 21:15:13;;;;;;;14.75;3.50;;;;;;;;;;5046741;28;20631;-40
2022/01/17 21:17:40;;;;;;;10.88;3.25;;;;;;;;;;5042506;28;20230;-44
2022/01/17 21:20:09;;;;;;;10.13;3.30;;;;;;;;;;5044889;28;20238;-45
2022/01/17 21:22:36;;;;;;;9.27;3.15;;;;;;;;;;5044129;28;20726;-37
2022/01/17 21:25:03;;;;;;;10.40;3.13;;;;;;;;;;5054477;28;21182;-35
2022/01/17 21:27:30;;;;;;;9.07;2.90;;;;;;;;;;5057778;28;20236;-39
2022/01/17 21:29:58;;;;;;;12.68;3.63;;;;;;;;;;5041450;28;20814;-40
2022/01/17 21:32:25;;;;;;;11.90;3.00;;;;;;;;;;5046318;28;20230;-43
2022/01/17 21:34:52;;;;;;;9.68;3.22;;;;;;;;;;5043490;28;20230;-44
2022/01/17 21:37:20;;;;;;;9.65;2.80;;;;;;;;;;5038640;28;20594;-42
2022/01/17 21:39:47;;;;;;;9.80;3.00;;;;;;;;;;5024559;28;20237;-43
2022/01/17 21:42:15;;;;;;;13.02;2.90;;;;;;;;;;5024863;28;20243;-42
2022/01/17 21:44:41;;;;;;;18.38;3.28;;;;;;;;;;5024840;28;20238;-42
2022/01/17 21:47:08;;;;;;;10.77;3.15;;;;;;;;;;5024634;28;20246;-40
2022/01/17 21:49:55;;;;;;;10.85;3.30;;;;;;;;;;5025332;28;20246;-40
2022/01/17 21:52:22;;;;;;;8.20;3.38;;;;;;;;;;5024506;28;21009;-40
2022/01/17 21:54:51;;;;;;;15.80;3.20;;;;;;;;;;5025275;28;20686;-36
2022/01/17 21:57:18;;;;;;;13.52;3.05;;;;;;;;;;5024592;28;20230;-30
2022/01/17 21:59:45;;;;;;;15.48;3.45;;;;;;;;;;5025575;28;20231;-28
2022/01/17 22:02:16;;;;;;;11.50;2.60;;;;;;;;;;5021588;28;20234;-27
2022/01/17 22:04:43;;;;;;;13.07;3.33;;;;;;;;;;5024854;28;21159;-31
2022/01/17 22:07:10;;;;;;;11.10;3.42;;;;;;;;;;5025469;28;20238;-30
2022/01/17 22:09:37;;;;;;;12.63;3.47;;;;;;;;;;5019200;28;78798;-28
2022/01/17 22:12:04;;;;;;;9.52;3.00;;;;;;;;;;5025207;28;21174;-24
2022/01/17 22:14:31;;;;;;;9.65;3.13;;;;;;;;;;5023732;28;21048;-23
2022/01/17 22:16:58;;;;;;;9.50;2.88;;;;;;;;;;5025995;28;20234;-23
2022/01/17 22:19:25;;;;;;;21.17;3.97;;;;;;;;;;5023579;28;21084;-27
2022/01/17 22:21:54;;;;;;;9.02;2.78;;;;;;;;;;5010587;28;20235;-26
2022/01/17 22:24:21;;;;;;;14.70;3.57;;;;;;;;;;5011404;28;20454;-25
2022/01/17 22:26:48;;;;;;;20.35;2.72;;;;;;;;;;5007586;28;20242;-29
2022/01/17 22:29:15;;;;;;;14.27;3.38;;;;;;;;;;5011477;28;21248;-24
2022/01/17 22:31:42;;;;;;;13.13;2.72;;;;;;;;;;5009411;28;21780;-28
2022/01/17 22:34:09;;;;;;;16.30;2.92;;;;;;;;;;5012839;28;21124;-31
2022/01/17 22:36:36;;;;;;;13.98;3.25;;;;;;;;;;5007947;28;20318;-27
2022/01/17 22:39:03;;;;;;;13.00;3.53;;;;;;;;;;5005832;28;20438;-26
2022/01/17 22:41:30;;;;;;;14.27;3.28;;;;;;;;;;5009070;28;20234;-24
2022/01/17 22:43:57;;;;;;;12.32;4.03;;;;;;;;;;5008464;28;20733;-27
2022/01/17 22:46:27;;;;;;;14.50;3.43;;;;;;;;;;5011534;28;20453;-29
2022/01/17 22:48:54;;;;;;;13.30;3.00;;;;;;;;;;5009729;28;20243;-24
2022/01/17 22:51:21;;;;;;;15.98;3.00;;;;;;;;;;5010954;28;20350;-23
2022/01/17 22:53:47;;;;;;;8.43;2.72;;;;;;;;;;5008014;28;20239;-24
2022/01/17 22:56:14;;;;;;;10.23;3.42;;;;;;;;;;5010383;28;20761;-24
2022/01/17 22:58:41;;;;;;;13.10;3.28;;;;;;;;;;5009646;28;20234;-29
2022/01/17 23:01:08;;;;;;;10.55;2.72;;;;;;;;;;5009636;28;20235;-23
2022/01/17 23:03:35;;;;;;;9.20;2.33;;;;;;;;;;5010356;28;20260;-24
2022/01/17 23:06:03;;;;;;;10.25;2.80;;;;;;;;;;5009208;28;20235;-26
2022/01/17 23:08:30;;;;;;;12.75;3.15;;;;;;;;;;5010432;28;20249;-26
2022/01/17 23:10:57;;;;;;;6.40;2.03;;;;;;;;;;5007396;28;20239;-26
2022/01/17 23:13:23;;;;;;;11.05;2.45;;;;;;;;;;5010453;28;21187;-23
2022/01/17 23:15:50;;;;;;;11.88;2.88;;;;;;;;;;5008426;28;20357;-27
2022/01/17 23:18:29;;;;;;;12.52;2.60;;;;;;;;;;5010538;28;20712;-25
2022/01/17 23:20:56;;;;;;;9.90;2.67;;;;;;;;;;5010224;28;20223;-24
2022/01/17 23:23:25;;;;;;;10.43;3.00;;;;;;;;;;5010938;28;20250;-23
2022/01/17 23:25:52;;;;;;;12.82;3.17;;;;;;;;;;5014886;28;20231;-26
2022/01/17 23:28:38;;;;;;;11.82;3.08;;;;;;;;;;5011572;28;20235;-26
2022/01/17 23:31:06;;;;;;;14.30;3.22;;;;;;;;;;5020369;28;20359;-33
2022/01/17 23:38:36;;;;;;;8.65;2.58;;;;;;;;;;5112933;27;81544;-26
2022/01/17 23:41:03;;;;;;;11.65;3.33;;;;;;;;;;5106480;28;43619;-27
2022/01/17 23:43:30;;;;;;;10.18;2.35;;;;;;;;;;5100016;28;43087;-27
2022/01/17 23:45:57;;;;;;;9.43;2.63;;;;;;;;;;5105795;28;44262;-25
2022/01/17 23:48:24;;;;;;;11.00;2.95;;;;;;;;;;5106541;28;44262;-27
2022/01/17 23:50:51;;;;;;;10.88;2.63;;;;;;;;;;5099517;28;43551;-25
2022/01/17 23:53:18;;;;;;;8.68;2.30;;;;;;;;;;5102864;28;42428;-25
2022/01/17 23:55:45;;;;;;;10.35;2.92;;;;;;;;;;5107018;28;45494;-23
2022/01/17 23:58:21;;;;;;;9.93;3.08;;;;;;;;;;5103626;28;44104;-22
